Time;durP1;ratioP1;P1;durP2;ratioP2;P2;SDS_P1;SDS_P2;PMS_P1;PMS_P2;Temp;Humidity;BMP_temperature;BMP_pressure;BME280_temperature;BME280_humidity;BME280_pressure;Samples;Min_cycle;Max_cycle;Signal;HPM_P1;HPM_P2
2021/08/06 00:01:57;;;;;;;5.82;3.63;;;16.00;99.90;;;;;;5067545;28;20075;-69
2021/08/06 00:04:22;;;;;;;8.30;3.80;;;16.00;99.90;;;;;;5067336;28;20033;-69
2021/08/06 00:06:48;;;;;;;5.15;3.17;;;16.00;99.90;;;;;;5067185;28;20020;-69
2021/08/06 00:09:14;;;;;;;8.48;3.25;;;16.00;99.90;;;;;;5067314;28;20041;-70
2021/08/06 00:11:40;;;;;;;4.78;3.10;;;15.90;99.90;;;;;;5067355;28;20036;-70
2021/08/06 00:14:06;;;;;;;6.18;3.67;;;15.90;99.90;;;;;;5067154;28;20537;-69
2021/08/06 00:16:35;;;;;;;5.57;2.65;;;15.80;99.90;;;;;;5066997;28;20049;-69
2021/08/06 00:19:01;;;;;;;7.55;3.85;;;15.80;99.90;;;;;;5067142;28;20033;-70
2021/08/06 00:21:27;;;;;;;4.68;3.35;;;15.80;99.90;;;;;;5066987;28;20035;-70
2021/08/06 00:23:52;;;;;;;4.57;3.03;;;15.80;99.90;;;;;;5065555;28;20033;-69
2021/08/06 00:26:18;;;;;;;6.35;3.45;;;15.80;99.90;;;;;;5064453;28;20025;-70
2021/08/06 00:28:44;;;;;;;7.13;3.60;;;15.80;99.90;;;;;;5066743;28;20048;-70
2021/08/06 00:31:10;;;;;;;7.15;3.53;;;15.70;99.90;;;;;;5065656;28;20466;-69
2021/08/06 00:33:36;;;;;;;5.63;3.17;;;15.70;99.90;;;;;;5065619;28;20025;-71
2021/08/06 00:36:01;;;;;;;5.70;3.47;;;15.70;99.90;;;;;;5066731;28;20057;-69
2021/08/06 00:38:27;;;;;;;3.88;3.05;;;15.70;99.90;;;;;;5066887;28;20029;-69
2021/08/06 00:40:53;;;;;;;10.20;3.50;;;15.60;99.90;;;;;;5066655;28;20041;-71
2021/08/06 00:43:18;;;;;;;7.32;3.85;;;15.60;99.90;;;;;;5066422;28;20152;-70
2021/08/06 00:45:45;;;;;;;6.65;3.75;;;15.60;99.90;;;;;;5065348;28;20025;-68
2021/08/06 00:48:10;;;;;;;7.68;3.83;;;15.60;99.90;;;;;;5066556;28;20029;-71
2021/08/06 00:50:37;;;;;;;7.90;3.83;;;15.60;99.90;;;;;;5066563;28;20025;-70
2021/08/06 00:53:02;;;;;;;6.97;4.15;;;15.60;99.90;;;;;;5065271;28;20025;-70
2021/08/06 00:55:28;;;;;;;7.28;3.88;;;15.60;99.90;;;;;;5066459;28;20107;-70
2021/08/06 00:57:54;;;;;;;6.03;3.47;;;15.60;99.90;;;;;;5066436;28;20816;-69
2021/08/06 01:00:20;;;;;;;7.05;3.88;;;15.50;99.90;;;;;;5066328;28;20499;-71
2021/08/06 01:03:25;;;;;;;6.70;3.47;;;15.50;99.90;;;;;;5066223;28;20375;-70
2021/08/06 01:06:12;;;;;;;6.03;3.80;;;15.50;99.90;;;;;;5065809;28;20430;-69
2021/08/06 01:09:09;;;;;;;8.07;4.18;;;15.50;99.90;;;;;;5066406;28;20036;-72
2021/08/06 01:11:38;;;;;;;5.50;3.63;;;15.50;99.90;;;;;;5039585;28;20060;-70
2021/08/06 01:14:08;;;;;;;9.43;4.30;;;15.50;99.90;;;;;;5066051;28;20078;-70
2021/08/06 01:16:35;;;;;;;6.80;4.40;;;15.50;99.90;;;;;;5065732;28;20139;-69
2021/08/06 01:19:26;;;;;;;6.97;3.92;;;15.40;99.90;;;;;;5066165;28;20068;-70
2021/08/06 01:22:15;;;;;;;5.22;3.28;;;15.40;99.90;;;;;;5065914;28;20024;-70
2021/08/06 01:24:48;;;;;;;5.57;4.10;;;15.40;99.90;;;;;;5064604;28;20040;-72
2021/08/06 01:27:13;;;;;;;6.90;4.18;;;15.40;99.90;;;;;;5065762;28;20218;-72
2021/08/06 01:29:39;;;;;;;7.70;4.35;;;15.40;99.90;;;;;;5065545;28;20045;-71
2021/08/06 01:32:06;;;;;;;7.07;4.10;;;15.20;99.90;;;;;;5065888;28;20078;-71
2021/08/06 01:34:31;;;;;;;11.15;5.10;;;15.30;99.90;;;;;;5064372;28;20033;-70
2021/08/06 01:36:57;;;;;;;8.60;4.85;;;15.30;99.90;;;;;;5064239;28;20031;-70
2021/08/06 01:39:22;;;;;;;9.68;4.55;;;15.30;99.90;;;;;;5063808;28;20044;-70
2021/08/06 01:41:57;;;;;;;7.75;4.90;;;15.30;99.90;;;;;;5065608;28;20036;-70
2021/08/06 01:44:36;;;;;;;6.55;4.20;;;15.30;99.90;;;;;;5065470;28;20029;-70
2021/08/06 01:47:17;;;;;;;8.27;4.75;;;15.30;99.90;;;;;;5065664;28;20120;-70
2021/08/06 01:49:51;;;;;;;14.68;4.93;;;15.30;99.90;;;;;;5065072;28;20048;-69
2021/08/06 01:52:30;;;;;;;16.63;5.30;;;15.20;99.90;;;;;;5065028;28;20564;-70
2021/08/06 01:54:59;;;;;;;10.40;4.75;;;15.20;99.90;;;;;;5065200;28;20029;-70
2021/08/06 01:57:27;;;;;;;7.60;4.47;;;15.20;99.90;;;;;;5080462;28;20025;-70
2021/08/06 01:59:54;;;;;;;9.00;5.07;;;15.20;99.90;;;;;;5063914;28;20021;-70
2021/08/06 02:02:20;;;;;;;9.93;4.85;;;15.20;99.90;;;;;;5065210;28;20029;-69
2021/08/06 02:04:47;;;;;;;12.68;6.18;;;15.20;99.90;;;;;;5065193;28;20044;-69
2021/08/06 02:07:16;;;;;;;8.73;4.82;;;15.10;99.90;;;;;;5064942;28;20033;-71
2021/08/06 02:09:42;;;;;;;11.73;5.18;;;15.10;99.90;;;;;;5064821;28;20100;-71
2021/08/06 02:12:08;;;;;;;10.80;4.95;;;15.10;99.90;;;;;;5064912;28;20032;-70
2021/08/06 02:14:38;;;;;;;9.40;5.70;;;15.10;99.90;;;;;;5064819;28;20049;-70
2021/08/06 02:17:04;;;;;;;9.85;5.00;;;15.10;99.90;;;;;;5065097;28;20059;-72
2021/08/06 02:19:32;;;;;;;8.10;5.25;;;15.00;99.90;;;;;;5064995;28;20033;-70
2021/08/06 02:22:00;;;;;;;10.07;5.68;;;15.00;99.90;;;;;;5065004;28;20108;-70
2021/08/06 02:24:28;;;;;;;13.20;5.85;;;15.00;99.90;;;;;;5064683;28;20029;-70
2021/08/06 02:26:55;;;;;;;12.32;5.05;;;15.10;99.90;;;;;;5065075;28;20021;-70
2021/08/06 02:29:26;;;;;;;13.50;5.53;;;15.00;99.90;;;;;;5064355;28;20037;-70
2021/08/06 02:31:52;;;;;;;9.07;5.57;;;14.90;99.90;;;;;;5064910;28;20036;-70
2021/08/06 02:34:19;;;;;;;8.60;5.72;;;15.00;99.90;;;;;;5064566;28;20028;-70
2021/08/06 02:36:46;;;;;;;12.20;6.93;;;15.00;99.90;;;;;;5064610;28;20052;-72
2021/08/06 02:39:18;;;;;;;12.38;6.70;;;15.00;99.90;;;;;;5063309;28;20576;-72
2021/08/06 02:41:44;;;;;;;12.52;6.82;;;14.90;99.90;;;;;;5064692;28;20107;-70
2021/08/06 02:44:11;;;;;;;10.43;5.95;;;14.90;99.90;;;;;;5064546;28;20059;-72
2021/08/06 02:46:38;;;;;;;11.57;6.57;;;14.90;99.90;;;;;;5064670;28;20048;-70
2021/08/06 02:49:05;;;;;;;7.28;5.38;;;14.90;99.90;;;;;;5064309;28;20037;-71
2021/08/06 02:51:36;;;;;;;10.00;5.85;;;14.90;99.90;;;;;;5064174;28;20025;-69
2021/08/06 02:54:03;;;;;;;10.43;6.10;;;14.80;99.90;;;;;;5064587;28;20374;-70
2021/08/06 02:56:29;;;;;;;13.57;6.47;;;14.90;99.90;;;;;;5063221;28;20041;-70
2021/08/06 02:58:55;;;;;;;14.23;6.32;;;14.80;99.90;;;;;;5064486;28;20029;-70
2021/08/06 03:01:21;;;;;;;12.18;6.45;;;14.80;99.90;;;;;;5064514;28;20493;-69
2021/08/06 03:03:46;;;;;;;10.20;6.47;;;14.80;99.90;;;;;;5064477;28;20032;-70
2021/08/06 03:06:12;;;;;;;10.18;6.00;;;14.80;99.90;;;;;;5064170;28;20029;-70
2021/08/06 03:08:39;;;;;;;10.07;6.40;;;14.80;99.90;;;;;;5064459;28;20025;-70
2021/08/06 03:11:05;;;;;;;12.68;6.63;;;14.80;99.90;;;;;;5064632;28;20037;-69
2021/08/06 03:13:30;;;;;;;12.10;6.03;;;14.70;99.90;;;;;;5064512;28;20036;-70
2021/08/06 03:15:56;;;;;;;10.70;5.93;;;14.70;99.90;;;;;;5062635;28;20045;-69
2021/08/06 03:18:22;;;;;;;9.40;5.82;;;14.70;99.90;;;;;;5064166;28;20021;-69
2021/08/06 03:20:48;;;;;;;14.27;6.82;;;14.70;99.90;;;;;;5064133;28;20048;-69
2021/08/06 03:23:13;;;;;;;14.80;6.10;;;14.70;99.90;;;;;;5062760;28;20111;-69
2021/08/06 03:25:39;;;;;;;12.98;6.68;;;14.70;99.90;;;;;;5062829;28;20033;-71
2021/08/06 03:28:04;;;;;;;12.07;7.68;;;14.60;99.90;;;;;;5064258;28;20065;-70
2021/08/06 03:30:30;;;;;;;12.38;7.20;;;14.60;99.90;;;;;;5064340;28;20037;-70
2021/08/06 03:32:56;;;;;;;12.63;6.28;;;14.60;99.90;;;;;;5064274;28;20079;-70
2021/08/06 03:35:21;;;;;;;14.57;7.82;;;14.60;99.90;;;;;;5064010;28;20037;-69
2021/08/06 03:37:47;;;;;;;19.30;6.90;;;14.60;99.90;;;;;;5062787;28;20056;-70
2021/08/06 03:40:14;;;;;;;12.63;7.60;;;14.60;99.90;;;;;;5063886;28;20111;-71
2021/08/06 03:42:44;;;;;;;12.07;6.63;;;14.50;99.90;;;;;;5064156;28;20081;-69
2021/08/06 03:45:11;;;;;;;17.60;7.65;;;14.50;99.90;;;;;;5064011;28;20029;-70
2021/08/06 03:47:37;;;;;;;15.15;7.50;;;14.50;99.90;;;;;;5064152;28;20033;-69
2021/08/06 03:50:08;;;;;;;15.63;7.85;;;14.50;99.90;;;;;;5062669;28;20044;-70
2021/08/06 03:52:33;;;;;;;10.27;6.20;;;14.50;99.90;;;;;;5064309;28;20025;-70
2021/08/06 03:55:00;;;;;;;14.80;7.63;;;14.50;99.90;;;;;;5063762;28;20055;-69
2021/08/06 03:57:26;;;;;;;12.10;7.47;;;14.50;99.90;;;;;;5063923;28;20025;-69
2021/08/06 03:59:51;;;;;;;12.68;6.75;;;14.50;99.90;;;;;;5063828;28;20112;-69
2021/08/06 04:02:17;;;;;;;12.25;6.68;;;14.50;99.90;;;;;;5066605;28;20040;-69
2021/08/06 04:04:46;;;;;;;12.07;7.15;;;14.50;99.90;;;;;;5067210;28;20393;-71
2021/08/06 04:07:11;;;;;;;17.25;8.45;;;14.50;99.90;;;;;;5067470;28;20053;-70
2021/08/06 04:09:37;;;;;;;15.35;8.02;;;14.60;99.90;;;;;;5067214;28;20049;-70
2021/08/06 04:12:04;;;;;;;13.85;7.78;;;14.50;99.90;;;;;;5066085;28;20096;-71
2021/08/06 04:14:30;;;;;;;12.50;8.15;;;14.50;99.90;;;;;;5067296;28;20440;-69
2021/08/06 04:16:55;;;;;;;14.20;6.93;;;14.50;99.90;;;;;;5066925;28;20057;-69
2021/08/06 04:19:21;;;;;;;16.83;7.95;;;14.50;99.90;;;;;;5066942;28;20029;-69
2021/08/06 04:21:47;;;;;;;15.75;7.68;;;14.50;99.90;;;;;;5067149;28;20036;-69
2021/08/06 04:24:12;;;;;;;17.05;8.88;;;14.50;99.90;;;;;;5066916;28;20420;-70
2021/08/06 04:26:38;;;;;;;14.85;8.23;;;14.50;99.90;;;;;;5067050;28;20033;-70
2021/08/06 04:29:04;;;;;;;16.88;8.25;;;14.50;99.90;;;;;;5066911;28;20064;-72
2021/08/06 04:31:29;;;;;;;17.55;8.90;;;14.50;99.90;;;;;;5066938;28;20025;-70
2021/08/06 04:33:55;;;;;;;15.52;8.70;;;14.50;99.90;;;;;;5066925;28;20036;-69
2021/08/06 04:36:21;;;;;;;12.63;7.63;;;14.60;99.90;;;;;;5066628;28;20057;-69
2021/08/06 04:38:46;;;;;;;15.80;8.52;;;14.60;99.90;;;;;;5062122;28;20036;-69
2021/08/06 04:41:12;;;;;;;16.17;8.15;;;14.60;99.90;;;;;;5066706;28;20549;-72
2021/08/06 04:43:37;;;;;;;14.18;8.18;;;14.60;99.90;;;;;;5047225;28;20034;-71
2021/08/06 04:46:03;;;;;;;18.27;8.27;;;14.60;99.90;;;;;;5046847;28;20059;-71
2021/08/06 04:48:28;;;;;;;15.60;8.88;;;14.60;99.90;;;;;;5057817;28;20029;-69
2021/08/06 04:50:54;;;;;;;16.02;8.25;;;14.60;99.90;;;;;;5065173;28;20036;-70
2021/08/06 04:53:20;;;;;;;15.63;8.27;;;14.60;99.90;;;;;;5063975;28;20386;-69
2021/08/06 04:55:45;;;;;;;16.17;7.72;;;14.60;99.90;;;;;;5065658;28;20040;-69
2021/08/06 04:58:11;;;;;;;13.23;7.78;;;14.70;99.90;;;;;;5062667;28;20046;-70
2021/08/06 05:00:37;;;;;;;17.65;9.00;;;14.70;99.90;;;;;;5045128;28;20026;-68
2021/08/06 05:03:03;;;;;;;18.15;8.52;;;14.70;99.90;;;;;;5058002;28;20021;-70
2021/08/06 05:05:28;;;;;;;18.10;9.55;;;14.70;99.90;;;;;;5048229;28;20028;-69
2021/08/06 05:07:55;;;;;;;19.10;8.88;;;14.70;99.90;;;;;;5061596;28;20037;-70
2021/08/06 05:10:22;;;;;;;22.38;9.77;;;14.80;99.90;;;;;;5065837;28;20044;-68
2021/08/06 05:13:00;;;;;;;15.65;8.93;;;14.70;99.90;;;;;;5057877;28;20023;-73
2021/08/06 05:15:26;;;;;;;15.27;8.30;;;14.70;99.90;;;;;;5040830;28;20048;-71
2021/08/06 05:17:53;;;;;;;15.07;8.48;;;14.70;99.90;;;;;;5045067;28;20029;-69
2021/08/06 05:20:19;;;;;;;16.25;8.63;;;14.80;99.90;;;;;;5043146;28;20036;-70
2021/08/06 05:22:45;;;;;;;17.80;8.18;;;14.80;99.90;;;;;;5041893;28;20032;-70
2021/08/06 05:25:11;;;;;;;15.00;8.43;;;14.80;99.90;;;;;;5043704;28;20029;-69
2021/08/06 05:27:38;;;;;;;17.88;9.68;;;14.90;99.90;;;;;;5045508;28;20034;-74
2021/08/06 05:30:04;;;;;;;17.65;8.77;;;14.90;99.90;;;;;;5045204;28;20113;-72
2021/08/06 05:32:30;;;;;;;15.18;7.85;;;14.90;99.90;;;;;;5043928;28;20025;-69
2021/08/06 05:35:05;;;;;;;17.45;8.85;;;15.00;99.90;;;;;;5045312;28;20034;-71
2021/08/06 05:37:31;;;;;;;21.17;9.05;;;15.00;99.90;;;;;;5043847;28;20050;-71
2021/08/06 05:39:57;;;;;;;24.90;9.32;;;15.10;99.90;;;;;;5043360;28;20091;-69
2021/08/06 05:42:22;;;;;;;15.65;8.02;;;15.20;99.90;;;;;;5047737;28;20032;-69
2021/08/06 05:44:48;;;;;;;17.23;7.80;;;15.20;99.90;;;;;;5050212;28;20517;-70
2021/08/06 05:47:20;;;;;;;14.80;7.50;;;15.20;99.90;;;;;;5051270;28;20025;-69
2021/08/06 05:49:48;;;;;;;18.17;8.93;;;15.20;99.90;;;;;;5065043;28;20036;-71
2021/08/06 05:52:14;;;;;;;15.95;9.13;;;15.30;99.90;;;;;;5061880;28;20021;-68
2021/08/06 05:54:51;;;;;;;14.10;7.53;;;15.30;99.90;;;;;;5043997;28;20307;-69
2021/08/06 05:57:16;;;;;;;14.00;7.60;;;15.40;99.90;;;;;;5042218;28;20064;-67
2021/08/06 05:59:45;;;;;;;14.70;8.60;;;15.40;99.90;;;;;;5058870;28;20036;-70
2021/08/06 06:02:15;;;;;;;18.25;8.88;;;15.50;99.90;;;;;;5063801;28;20033;-68
2021/08/06 06:04:43;;;;;;;16.17;8.40;;;15.50;99.90;;;;;;5065179;28;20060;-69
2021/08/06 06:07:11;;;;;;;13.65;8.07;;;15.60;99.90;;;;;;5065013;28;20100;-68
2021/08/06 06:09:37;;;;;;;14.32;8.20;;;15.70;99.90;;;;;;5063812;28;20041;-69
2021/08/06 06:12:04;;;;;;;13.70;8.23;;;15.70;99.90;;;;;;5063838;28;20033;-69
2021/08/06 06:14:29;;;;;;;10.93;6.78;;;15.70;99.90;;;;;;5055011;28;20038;-68
2021/08/06 06:16:55;;;;;;;15.43;7.50;;;15.80;99.90;;;;;;5044565;28;20049;-70
2021/08/06 06:19:21;;;;;;;20.10;8.95;;;15.80;99.90;;;;;;5044910;28;20065;-70
2021/08/06 06:21:46;;;;;;;13.35;8.07;;;15.90;99.90;;;;;;5045126;28;20438;-69
2021/08/06 06:24:15;;;;;;;11.38;6.93;;;16.00;99.90;;;;;;5042617;28;20030;-70
2021/08/06 06:26:42;;;;;;;12.35;6.88;;;16.00;99.90;;;;;;5044966;28;20026;-71
2021/08/06 06:29:07;;;;;;;13.88;6.43;;;16.00;99.90;;;;;;5044724;28;20100;-70
2021/08/06 06:31:37;;;;;;;14.85;6.25;;;16.10;99.90;;;;;;5043316;28;20101;-71
2021/08/06 06:34:06;;;;;;;10.95;6.68;;;16.20;99.90;;;;;;5044807;28;20052;-70
2021/08/06 06:36:31;;;;;;;13.30;7.68;;;16.30;99.90;;;;;;5044762;28;20068;-69
2021/08/06 06:38:57;;;;;;;11.25;6.15;;;16.30;99.90;;;;;;5044513;28;20025;-67
2021/08/06 06:41:23;;;;;;;12.15;6.13;;;16.50;99.90;;;;;;5042919;28;20084;-70
2021/08/06 06:43:58;;;;;;;13.63;7.00;;;16.50;99.90;;;;;;5043840;28;20076;-73
2021/08/06 06:46:24;;;;;;;12.73;6.80;;;16.60;99.90;;;;;;5044247;28;20037;-71
2021/08/06 06:48:50;;;;;;;13.98;7.13;;;16.70;99.90;;;;;;5044234;28;20021;-71
2021/08/06 06:51:16;;;;;;;15.75;5.95;;;16.80;99.90;;;;;;5049906;28;20052;-69
2021/08/06 06:53:52;;;;;;;10.55;5.70;;;16.90;99.90;;;;;;5048721;28;20033;-69
2021/08/06 06:56:18;;;;;;;10.35;5.72;;;16.90;99.90;;;;;;5054048;28;20025;-69
2021/08/06 06:58:44;;;;;;;17.08;6.03;;;17.00;99.90;;;;;;5055541;28;20021;-72
2021/08/06 07:01:23;;;;;;;10.55;5.85;;;17.20;99.90;;;;;;5064027;28;20035;-68
2021/08/06 07:03:49;;;;;;;9.40;5.38;;;17.30;99.90;;;;;;5051891;28;20049;-70
2021/08/06 07:06:23;;;;;;;11.02;5.47;;;17.40;99.90;;;;;;5042243;28;20025;-71
2021/08/06 07:08:49;;;;;;;8.05;5.00;;;17.50;99.90;;;;;;5044562;28;20076;-69
2021/08/06 07:11:14;;;;;;;7.65;4.90;;;17.50;99.90;;;;;;5050580;28;20501;-73
2021/08/06 07:13:41;;;;;;;9.40;5.60;;;17.70;99.90;;;;;;5061365;28;20087;-71
2021/08/06 07:16:09;;;;;;;14.57;5.68;;;17.70;99.90;;;;;;5061732;28;20075;-70
2021/08/06 07:18:37;;;;;;;17.40;5.55;;;17.80;99.90;;;;;;5064527;28;20057;-71
2021/08/06 07:21:12;;;;;;;8.98;4.90;;;17.90;99.90;;;;;;5055619;28;20497;-71
2021/08/06 07:23:38;;;;;;;17.17;5.10;;;17.90;99.90;;;;;;5042896;28;20093;-73
2021/08/06 07:26:05;;;;;;;10.98;4.60;;;18.00;99.90;;;;;;5056894;28;20029;-70
2021/08/06 07:28:30;;;;;;;8.00;5.03;;;18.00;99.90;;;;;;5042042;28;20033;-71
2021/08/06 07:30:56;;;;;;;13.07;4.97;;;18.00;99.90;;;;;;5044076;28;20077;-69
2021/08/06 07:33:21;;;;;;;9.73;4.95;;;18.10;99.90;;;;;;5041614;28;20029;-71
2021/08/06 07:35:47;;;;;;;9.13;4.82;;;18.10;99.90;;;;;;5057714;28;20040;-70
2021/08/06 07:38:12;;;;;;;10.98;5.22;;;18.30;99.90;;;;;;5055004;28;20030;-71
2021/08/06 07:40:39;;;;;;;7.93;4.38;;;18.40;99.90;;;;;;5056613;28;20064;-72
2021/08/06 07:43:07;;;;;;;5.57;3.67;;;18.50;99.90;;;;;;5067787;28;20047;-71
2021/08/06 07:45:35;;;;;;;10.23;4.05;;;18.60;99.90;;;;;;5060909;28;20021;-70
2021/08/06 07:48:01;;;;;;;4.95;3.53;;;18.70;99.90;;;;;;5060738;28;20051;-68
2021/08/06 07:50:27;;;;;;;7.38;3.80;;;18.70;99.90;;;;;;5067413;28;20485;-69
2021/08/06 07:52:53;;;;;;;8.18;4.53;;;18.80;99.90;;;;;;5067391;28;20060;-69
2021/08/06 07:55:18;;;;;;;7.32;4.32;;;18.80;99.90;;;;;;5066519;28;20074;-69
2021/08/06 07:57:44;;;;;;;6.28;3.88;;;19.00;99.90;;;;;;5066735;28;20028;-71
2021/08/06 08:00:11;;;;;;;6.43;3.30;;;19.10;99.90;;;;;;5067598;28;20037;-73
2021/08/06 08:02:38;;;;;;;7.72;3.63;;;19.20;99.90;;;;;;5066564;28;20036;-73
2021/08/06 08:05:05;;;;;;;7.47;3.95;;;19.30;99.90;;;;;;5046217;28;20029;-70
2021/08/06 08:07:31;;;;;;;5.97;3.65;;;19.30;99.90;;;;;;5047581;28;20017;-69
2021/08/06 08:09:56;;;;;;;6.68;3.67;;;19.40;99.90;;;;;;5045788;28;20133;-71
2021/08/06 08:12:22;;;;;;;4.97;3.42;;;19.50;99.90;;;;;;5054588;28;20025;-71
2021/08/06 08:14:48;;;;;;;6.22;4.05;;;19.40;99.90;;;;;;5059321;28;20025;-69
2021/08/06 08:17:16;;;;;;;6.07;3.63;;;19.50;99.90;;;;;;5047759;28;20045;-72
2021/08/06 08:19:42;;;;;;;5.57;3.67;;;19.60;99.90;;;;;;5048528;28;20044;-71
2021/08/06 08:22:08;;;;;;;6.20;3.08;;;19.60;99.90;;;;;;5066525;28;20025;-70
2021/08/06 08:24:37;;;;;;;16.17;3.67;;;19.60;99.90;;;;;;5065351;28;20029;-70
2021/08/06 08:27:03;;;;;;;5.93;3.53;;;19.60;99.90;;;;;;5061946;28;20043;-71
2021/08/06 08:29:29;;;;;;;9.63;4.15;;;19.60;99.90;;;;;;5065974;28;20044;-70
2021/08/06 08:31:55;;;;;;;6.07;3.85;;;19.60;99.90;;;;;;5066065;28;20025;-71
2021/08/06 08:34:20;;;;;;;6.20;3.63;;;19.60;99.90;;;;;;5066185;28;20085;-70
2021/08/06 08:36:46;;;;;;;6.57;3.95;;;19.70;99.90;;;;;;5062506;28;20059;-69
2021/08/06 08:39:12;;;;;;;5.18;3.10;;;19.60;99.90;;;;;;5045524;28;20040;-71
2021/08/06 08:41:38;;;;;;;6.82;3.35;;;19.60;99.90;;;;;;5074856;28;20029;-69
2021/08/06 08:44:04;;;;;;;9.80;3.70;;;19.70;99.90;;;;;;5045541;28;20040;-70
2021/08/06 08:46:33;;;;;;;6.82;4.13;;;19.70;99.90;;;;;;5045773;28;20094;-70
2021/08/06 08:49:01;;;;;;;7.53;3.40;;;19.80;99.90;;;;;;5044795;28;20069;-67
2021/08/06 08:51:28;;;;;;;8.73;3.70;;;19.90;99.90;;;;;;5049621;28;20021;-70
2021/08/06 08:53:55;;;;;;;6.43;3.90;;;19.90;99.90;;;;;;5044338;28;20037;-71
2021/08/06 08:56:24;;;;;;;5.22;3.88;;;20.00;99.90;;;;;;5044376;28;20021;-75
2021/08/06 08:58:50;;;;;;;8.05;3.88;;;20.10;99.90;;;;;;5045492;28;20025;-69
2021/08/06 09:01:16;;;;;;;6.15;3.78;;;20.30;99.90;;;;;;5059501;28;20022;-70
2021/08/06 09:03:48;;;;;;;8.88;3.97;;;20.40;99.90;;;;;;5045061;28;20044;-73
2021/08/06 09:06:15;;;;;;;6.45;3.83;;;20.50;99.90;;;;;;5063357;28;20036;-71
2021/08/06 09:08:42;;;;;;;8.48;3.55;;;20.50;99.90;;;;;;5053959;28;20089;-71
2021/08/06 09:11:31;;;;;;;6.28;3.63;;;20.60;99.90;;;;;;5046186;28;20037;-70
2021/08/06 09:14:27;;;;;;;7.05;3.20;;;20.70;99.90;;;;;;5044703;28;20040;-69
2021/08/06 09:17:04;;;;;;;6.20;3.88;;;20.80;99.90;;;;;;5044578;28;20049;-68
2021/08/06 09:19:37;;;;;;;6.15;3.92;;;20.90;99.90;;;;;;5044958;28;20036;-70
2021/08/06 09:22:11;;;;;;;6.13;3.28;;;21.00;99.90;;;;;;5046233;28;20093;-71
2021/08/06 09:25:10;;;;;;;6.75;3.75;;;21.20;99.90;;;;;;5046033;28;20421;-72
2021/08/06 09:27:42;;;;;;;4.43;2.92;;;21.30;99.90;;;;;;5044860;28;20036;-71
2021/08/06 09:30:19;;;;;;;7.80;3.63;;;21.30;99.90;;;;;;5045759;28;20056;-72
2021/08/06 09:32:54;;;;;;;5.70;3.15;;;21.30;99.90;;;;;;5045924;28;20041;-71
2021/08/06 09:35:23;;;;;;;;;;;21.40;99.90;;;;;;5046003;28;20026;-72
2021/08/06 09:37:49;;;;;;;7.32;3.22;;;21.40;99.90;;;;;;5046043;28;19905;-72
2021/08/06 09:40:21;;;;;;;6.90;3.13;;;21.50;99.90;;;;;;5065507;28;20037;-72
2021/08/06 09:42:54;;;;;;;6.60;3.58;;;21.60;99.90;;;;;;5065733;28;20017;-70
2021/08/06 09:45:23;;;;;;;5.35;3.15;;;21.60;99.90;;;;;;5065643;28;20021;-70
2021/08/06 09:47:56;;;;;;;5.88;2.88;;;21.70;99.90;;;;;;5064351;28;20025;-68
2021/08/06 09:50:46;;;;;;;5.18;2.60;;;21.80;99.90;;;;;;5057864;28;20064;-73
2021/08/06 09:53:18;;;;;;;6.68;3.40;;;21.60;99.90;;;;;;5057922;28;20417;-74
2021/08/06 09:55:49;;;;;;;6.22;3.55;;;21.60;99.90;;;;;;5044239;28;20093;-68
2021/08/06 09:58:20;;;;;;;5.05;3.42;;;21.70;99.90;;;;;;5045113;28;20055;-71
2021/08/06 10:00:52;;;;;;;4.95;2.95;;;21.70;99.90;;;;;;5055163;28;20363;-69
2021/08/06 10:03:44;;;;;;;5.03;3.47;;;21.80;99.90;;;;;;5063905;28;20498;-70
2021/08/06 10:06:19;;;;;;;5.00;2.83;;;21.90;99.90;;;;;;5059078;28;20097;-71
2021/08/06 10:08:46;;;;;;;6.32;3.05;;;22.00;99.90;;;;;;5045196;28;20021;-68
2021/08/06 10:11:13;;;;;;;6.75;3.50;;;22.10;99.90;;;;;;5045076;28;20039;-74
2021/08/06 10:13:44;;;;;;;5.75;3.28;;;22.10;99.90;;;;;;5045290;28;20021;-73
2021/08/06 10:16:11;;;;;;;4.03;2.67;;;22.00;99.90;;;;;;5056122;28;20053;-71
2021/08/06 10:18:43;;;;;;;6.05;3.25;;;22.10;99.90;;;;;;5065207;28;20056;-71
2021/08/06 10:21:11;;;;;;;11.95;3.70;;;22.10;99.90;;;;;;5065121;28;20028;-70
2021/08/06 10:23:38;;;;;;;8.43;3.58;;;22.00;99.90;;;;;;5063699;28;20028;-70
2021/08/06 10:26:09;;;;;;;5.20;2.65;;;22.00;99.90;;;;;;5063515;28;20036;-71
2021/08/06 10:28:40;;;;;;;5.30;2.60;;;21.90;99.90;;;;;;5063575;28;20067;-70
2021/08/06 10:31:23;;;;;;;9.10;3.67;;;21.80;99.90;;;;;;5064940;28;20045;-71
2021/08/06 10:34:03;;;;;;;4.28;2.60;;;21.80;99.90;;;;;;5064647;28;20075;-70
2021/08/06 10:36:45;;;;;;;5.97;2.88;;;21.70;99.90;;;;;;5064448;28;20021;-70
2021/08/06 10:39:37;;;;;;;5.70;3.20;;;21.70;99.90;;;;;;5064549;28;20045;-70
2021/08/06 10:42:04;;;;;;;6.40;2.83;;;21.70;99.90;;;;;;5064892;28;20125;-74
2021/08/06 10:44:52;;;;;;;5.40;3.10;;;21.70;99.90;;;;;;5057374;28;20028;-71
2021/08/06 10:47:18;;;;;;;2.92;2.08;;;21.70;99.90;;;;;;5044773;28;20030;-69
2021/08/06 10:50:17;;;;;;;8.65;2.28;;;21.70;99.90;;;;;;5044509;28;20056;-73
2021/08/06 10:52:43;;;;;;;4.85;3.28;;;21.60;99.90;;;;;;5044499;28;20033;-73
2021/08/06 10:55:20;;;;;;;5.82;3.50;;;21.60;99.90;;;;;;5044701;28;20060;-72
2021/08/06 10:57:46;;;;;;;3.20;2.20;;;21.80;99.90;;;;;;5044468;28;20021;-71
2021/08/06 11:00:43;;;;;;;4.25;3.00;;;22.00;99.90;;;;;;5044424;28;20078;-73
2021/08/06 11:03:36;;;;;;;5.20;2.55;;;22.20;99.90;;;;;;5042663;28;20406;-75
2021/08/06 11:06:30;;;;;;;5.25;2.63;;;22.50;99.90;;;;;;5036665;28;20141;-70
2021/08/06 11:08:56;;;;;;;6.75;3.25;;;22.70;99.90;;;;;;5043055;28;20036;-72
2021/08/06 11:11:49;;;;;;;11.38;3.05;;;22.80;99.90;;;;;;5046193;28;20097;-70
2021/08/06 11:14:20;;;;;;;4.50;2.80;;;22.90;99.90;;;;;;5048714;28;20073;-73
2021/08/06 11:17:15;;;;;;;3.58;2.08;;;23.00;99.90;;;;;;5048117;28;20042;-73
2021/08/06 11:19:41;;;;;;;;;;;22.80;99.90;;;;;;5047096;28;20045;-70
2021/08/06 11:22:16;;;;;;;6.03;2.55;;;22.60;99.90;;;;;;5046968;28;19905;-70
2021/08/06 11:24:51;;;;;;;6.53;2.88;;;22.40;99.90;;;;;;5047113;28;20022;-71
2021/08/06 11:27:19;;;;;;;6.78;2.65;;;22.10;99.90;;;;;;5048349;28;20093;-72
2021/08/06 11:30:08;;;;;;;4.18;2.58;;;22.00;99.90;;;;;;5047962;28;20045;-76
2021/08/06 11:32:51;;;;;;;11.43;2.30;;;21.70;99.90;;;;;;5048411;28;20026;-71
2021/08/06 11:35:19;;;;;;;5.82;2.60;;;21.60;99.90;;;;;;5047921;28;20029;-71
2021/08/06 11:37:46;;;;;;;6.53;2.75;;;21.50;99.90;;;;;;5046743;28;20026;-69
2021/08/06 11:40:13;;;;;;;3.90;2.40;;;21.40;99.90;;;;;;5047815;28;20025;-72
2021/08/06 11:42:39;;;;;;;8.60;2.55;;;21.30;99.90;;;;;;5047845;28;20032;-70
2021/08/06 11:45:11;;;;;;;3.72;2.72;;;21.30;99.90;;;;;;5048014;28;20025;-69
2021/08/06 11:47:52;;;;;;;4.72;2.63;;;21.10;99.90;;;;;;5048023;28;20030;-70
2021/08/06 11:50:38;;;;;;;3.72;2.38;;;21.10;99.90;;;;;;5046135;28;20072;-70
2021/08/06 11:53:17;;;;;;;2.35;1.67;;;21.10;99.90;;;;;;5047936;28;20114;-73
2021/08/06 11:55:47;;;;;;;2.17;0.75;;;21.00;99.90;;;;;;5047780;28;20056;-71
2021/08/06 11:58:14;;;;;;;1.75;1.02;;;20.90;99.90;;;;;;5046050;28;20036;-73
2021/08/06 12:00:43;;;;;;;4.10;0.70;;;20.90;99.90;;;;;;5046410;28;20097;-71
2021/08/06 12:03:16;;;;;;;2.15;1.20;;;20.70;99.90;;;;;;5047954;28;20039;-74
2021/08/06 12:05:44;;;;;;;0.68;0.40;;;20.30;99.90;;;;;;5047766;28;20497;-68
2021/08/06 12:08:19;;;;;;;0.70;0.30;;;20.00;99.90;;;;;;5047673;28;20061;-73
2021/08/06 12:10:50;;;;;;;1.10;0.50;;;19.60;99.90;;;;;;5047488;28;20037;-70
2021/08/06 12:13:23;;;;;;;1.17;0.50;;;19.30;99.90;;;;;;5045983;28;20167;-70
2021/08/06 12:16:11;;;;;;;12.10;0.50;;;19.00;99.90;;;;;;5047110;28;20046;-69
2021/08/06 12:18:53;;;;;;;0.47;0.20;;;18.70;99.90;;;;;;5047445;28;20025;-71
2021/08/06 12:21:30;;;;;;;0.40;0.30;;;18.60;99.90;;;;;;5047275;28;20051;-72
2021/08/06 12:23:59;;;;;;;5.80;0.40;;;18.50;99.90;;;;;;5047026;28;20393;-71
2021/08/06 12:26:34;;;;;;;8.93;0.65;;;18.40;99.90;;;;;;5046967;28;20030;-70
2021/08/06 12:29:19;;;;;;;0.57;0.43;;;18.30;99.90;;;;;;5045924;28;20032;-71
2021/08/06 12:32:02;;;;;;;;;;;18.20;99.90;;;;;;5047641;28;20037;-69
2021/08/06 12:34:40;;;;;;;2.05;0.35;;;18.10;99.90;;;;;;5047165;28;19909;-72
2021/08/06 12:37:09;;;;;;;1.10;0.57;;;18.00;99.90;;;;;;5047139;28;20075;-71
2021/08/06 12:39:46;;;;;;;0.75;0.52;;;18.00;99.90;;;;;;5047100;28;20067;-74
2021/08/06 12:42:24;;;;;;;2.40;0.70;;;17.90;99.90;;;;;;5046946;28;20612;-73
2021/08/06 12:45:09;;;;;;;1.17;0.35;;;17.90;99.90;;;;;;5045488;28;20025;-73
2021/08/06 12:47:45;;;;;;;0.22;0.22;;;17.90;99.90;;;;;;5046983;28;20032;-77
2021/08/06 12:50:16;;;;;;;1.10;0.43;;;17.90;99.90;;;;;;5046484;28;20033;-72
2021/08/06 12:52:44;;;;;;;1.40;0.63;;;17.90;99.90;;;;;;5046757;28;20049;-78
2021/08/06 12:55:13;;;;;;;0.70;0.52;;;17.80;99.90;;;;;;5046799;28;20509;-74
2021/08/06 12:57:49;;;;;;;0.65;0.35;;;17.80;99.90;;;;;;5045432;28;20064;-75